Latest Weather Observations for Hobart Airport

IDT60901

Issued at 5:41 am EDT Tuesday 9 February 2016 (issued every 10 minutes, with the page automatically refreshed every 10 minutes)

About weather observations | Map of Hobart area stations | Latest observations for Hobart area | Other Formats
Station Details ID: 094008 Name: HOBART AIRPORT Lat: -42.83 Lon: 147.50 Height: 4.0 m
Data from the previous 72 hours. | See also: Recent months at Hobart Airport
Date/Time
EDT
Tmp

°C
App
Tmp
°C
Dew
Point
°C
Rel
Hum
%
Delta-T

°C
Wind Press
QNH
hPa
Press
MSL
hPa
Rain
since
9 am
mm
Dir
 
Spd
km/h
Gust
km/h
Spd
kts
Gust
kts
09/05:30am 14.3 12.1 9.2 71 2.6 NW 11 17 6 9 1020.8 1020.8 0.0
09/05:00am 15.0 12.1 8.2 64 3.4 NNW 13 17 7 9 1020.7 1020.7 0.0
09/04:30am 14.9 12.9 8.6 66 3.2 W 9 9 5 5 1020.6 1020.6 0.0
09/04:00am 14.1 13.4 8.5 69 2.8 N 2 6 1 3 1020.5 1020.5 0.0
09/03:30am 14.7 14.4 8.8 68 3.0 CALM 0 6 0 3 1020.5 1020.5 0.0
09/03:00am 16.3 14.1 8.0 58 4.2 W 9 11 5 6 1020.4 1020.4 0.0
09/02:30am 17.3 13.5 7.5 52 4.9 WNW 17 24 9 13 1020.5 1020.5 0.0
09/02:00am 17.5 13.4 7.8 53 4.9 WNW 19 24 10 13 1020.5 1020.5 0.0
09/01:30am 17.4 14.4 7.7 53 4.9 WNW 13 17 7 9 1020.8 1020.8 0.0
09/01:00am 17.3 14.7 7.8 53 4.8 W 11 13 6 7 1021.0 1021.0 0.0
09/12:30am 17.7 13.9 7.6 51 5.1 WNW 17 20 9 11 1020.9 1020.9 0.0
09/12:00am 17.5 14.4 7.1 50 5.2 WNW 13 17 7 9 1021.0 1021.0 0.0
 
Date/Time
EDT
Tmp

°C
App
Tmp
°C
Dew
Point
°C
Rel
Hum
%
Delta-T

°C
Wind Press
QNH
hPa
Press
MSL
hPa
Rain
since
9 am
mm
Dir
 
Spd
km/h
Gust
km/h
Spd
kts
Gust
kts
08/11:30pm 17.7 14.2 7.1 50 5.3 WNW 15 19 8 10 1021.1 1021.1 0.0
08/11:00pm 18.3 15.0 6.3 45 5.9 WNW 13 19 7 10 1021.2 1021.2 0.0
08/10:30pm 17.9 15.4 6.6 47 5.6 NNW 9 11 5 6 1021.3 1021.3 0.0
08/10:00pm 18.8 16.0 6.8 45 6.0 SW 11 15 6 8 1021.2 1021.2 0.0
08/09:30pm 19.0 15.2 7.6 47 5.8 SW 17 22 9 12 1020.6 1020.6 0.0
08/09:00pm 19.6 14.1 7.4 45 6.2 SW 26 33 14 18 1019.9 1019.9 0.0
08/08:30pm 20.6 15.0 7.3 42 6.8 SW 26 35 14 19 1019.4 1019.4 0.0
08/08:00pm 22.5 16.6 5.8 34 8.4 WSW 26 33 14 18 1018.8 1018.8 0.0
08/07:30pm 24.1 19.3 5.5 30 9.4 WNW 20 30 11 16 1018.1 1018.1 0.0
08/07:00pm 24.3 21.5 7.0 33 9.0 E 11 20 6 11 1017.8 1017.8 0.0
08/06:30pm 23.2 19.2 10.5 44 7.0 SSE 22 32 12 17 1017.4 1017.4 0.0
08/06:00pm 22.7 19.3 11.2 48 6.4 SE 20 30 11 16 1017.4 1017.4 0.0
08/05:30pm 23.9 21.0 12.3 48 6.6 ESE 19 26 10 14 1017.2 1017.2 0.0
08/05:00pm 23.3 19.0 12.0 49 6.4 SE 26 33 14 18 1017.3 1017.3 0.0
08/04:30pm 23.3 18.6 13.3 53 5.8 SSE 30 35 16 19 1017.2 1017.2 0.0
08/04:00pm 23.7 19.3 11.6 46 6.8 SSE 26 30 14 16 1017.2 1017.2 0.0
08/03:30pm 22.9 18.2 12.1 50 6.1 SSE 28 32 15 17 1017.2 1017.2 0.0
08/03:00pm 23.3 18.2 11.8 48 6.5 SSE 30 35 16 19 1017.3 1017.3 0.0
08/02:30pm 24.1 19.6 12.6 48 6.6 SE 28 35 15 19 1017.3 1017.3 0.0
08/02:00pm 25.5 22.0 8.9 35 9.0 SSE 17 26 9 14 1017.4 1017.4 0.0
08/01:30pm 24.2 21.0 8.5 36 8.4 ESE 15 20 8 11 1017.5 1017.5 0.0
08/01:00pm 24.3 21.9 9.9 40 7.9 SE 13 20 7 11 1017.6 1017.6 0.0
08/12:30pm 24.1 21.5 10.6 42 7.5 E 15 26 8 14 1017.6 1017.6 0.0
08/12:00pm 24.0 20.9 10.2 41 7.6 SE 17 28 9 15 1017.9 1017.9 0.0
08/11:30am 22.9 20.3 10.8 46 6.7 SE 15 24 8 13 1018.0 1018.0 0.0
08/11:00am 22.9 20.0 8.3 39 7.7 S 13 19 7 10 1018.3 1018.3 0.0
08/10:30am 22.6 19.1 8.7 41 7.4 WNW 17 26 9 14 1018.2 1018.2 0.0
08/10:00am 22.6 19.1 8.9 41 7.3 WNW 17 26 9 14 1018.2 1018.2 0.0
08/09:30am 21.1 18.3 8.5 44 6.6 WSW 13 37 7 20 1018.7 1018.7 0.0
08/09:00am 20.4 20.3 12.0 58 4.7 SSE 4 9 2 5 1018.6 1018.6 0.0
08/08:30am 19.9 20.1 14.2 69 3.3 SW 6 11 3 6 1018.5 1018.5 0.0
08/08:00am 19.3 18.3 14.7 74 2.7 NW 13 17 7 9 1018.2 1018.2 0.0
08/07:30am 18.0 17.8 15.6 86 1.4 WNW 11 13 6 7 1018.0 1018.0 0.0
08/07:00am 17.1 15.6 15.4 90 1.0 NW 17 19 9 10 1017.7 1017.7 0.0
08/06:30am 16.5 15.3 15.1 91 0.8 NW 15 17 8 9 1017.4 1017.4 0.0
08/06:00am 16.9 16.5 15.2 90 1.0 NW 11 13 6 7 1017.3 1017.3 0.0
08/05:30am 17.2 16.9 15.5 90 1.0 WNW 11 13 6 7 1017.2 1017.2 0.0
08/05:00am 17.5 17.2 15.4 87 1.2 NW 11 13 6 7 1017.0 1017.0 0.0
08/04:30am 17.7 19.4 15.3 86 1.4 CALM 0 0 0 0 1017.0 1017.0 0.0
08/04:00am 17.9 19.6 15.2 84 1.6 CALM 0 0 0 0 1017.0 1017.0 0.0
08/03:30am 17.6 19.2 15.0 85 1.5 CALM 0 0 0 0 1017.1 1017.1 0.0
08/03:00am 17.7 19.4 15.1 85 1.5 CALM 0 0 0 0 1017.3 1017.3 0.0
08/02:30am 17.7 19.2 14.6 82 1.8 CALM 0 0 0 0 1017.5 1017.5 0.0
08/02:00am 18.6 19.0 14.8 78 2.2 S 6 7 3 4 1017.7 1017.7 0.0
08/01:30am 18.6 18.6 15.2 80 2.0 SSW 9 11 5 6 1017.8 1017.8 0.0
08/01:00am 18.7 18.7 15.3 80 2.0 SSW 9 11 5 6 1018.1 1018.1 0.0
08/12:30am 18.8 18.6 15.6 82 1.9 SSW 11 13 6 7 1018.2 1018.2 0.0
08/12:00am 18.8 18.3 15.8 83 1.8 S 13 15 7 8 1018.1 1018.1 0.0
 
Date/Time
EDT
Tmp

°C
App
Tmp
°C
Dew
Point
°C
Rel
Hum
%
Delta-T

°C
Wind Press
QNH
hPa
Press
MSL
hPa
Rain
since
9 am
mm
Dir
 
Spd
km/h
Gust
km/h
Spd
kts
Gust
kts
07/11:30pm 18.8 18.3 15.9 83 1.7 SSW 13 17 7 9 1018.2 1018.2 0.0
07/11:00pm 19.4 18.9 15.9 80 2.1 SE 13 17 7 9 1018.4 1018.4 0.0
07/10:30pm 19.6 18.7 15.9 79 2.2 SE 15 19 8 10 1018.5 1018.5 0.0
07/10:23pm 19.5 19.0 15.8 79 2.2 SE 13 17 7 9 1018.6 1018.6 0.0
07/10:00pm 19.6 18.6 15.7 78 2.3 SE 15 19 8 10 1018.5 1018.5 0.0
07/09:30pm 19.5 19.1 16.2 81 2.0 SE 13 17 7 9 1018.2 1018.2 0.0
07/09:00pm 19.6 19.6 16.3 81 2.0 SE 11 19 6 10 1017.9 1017.9 0.0
07/08:30pm 20.1 19.8 15.5 75 2.7 SE 11 17 6 9 1017.8 1017.8 0.0
07/08:00pm 20.1 19.2 15.9 77 2.5 SE 15 20 8 11 1017.5 1017.5 0.0
07/07:55pm 20.1 19.1 15.7 76 2.6 SE 15 20 8 11 1017.4 1017.4 0.0
07/07:30pm 20.4 19.9 15.9 75 2.7 SE 13 20 7 11 1017.1 1017.1 0.0
07/07:00pm 20.9 20.4 15.9 73 3.0 SE 13 24 7 13 1016.8 1016.8 0.0
07/06:30pm 21.4 17.9 14.4 64 4.1 S 26 32 14 17 1016.3 1016.3 0.0
07/06:00pm 21.7 18.1 14.2 62 4.4 S 26 32 14 17 1016.2 1016.2 0.0
07/05:30pm 21.2 18.5 14.7 66 3.8 SSE 22 30 12 16 1016.0 1016.0 0.0
07/05:00pm 22.6 19.5 14.6 60 4.7 SSE 24 30 13 16 1016.1 1016.1 0.0
07/04:30pm 23.1 21.0 14.6 58 5.0 SSE 19 24 10 13 1016.1 1016.1 0.0
07/04:00pm 22.7 20.3 14.4 59 4.9 SSE 20 26 11 14 1016.2 1016.2 0.0
07/03:30pm 22.1 19.3 14.2 61 4.6 SSE 22 30 12 16 1016.4 1016.4 0.0
07/03:00pm 22.6 19.1 14.6 60 4.7 SSE 26 32 14 17 1016.8 1016.8 0.0
07/02:30pm 23.2 20.7 14.2 57 5.3 SE 20 28 11 15 1017.0 1017.0 0.0
07/02:00pm 22.7 19.9 14.2 58 5.0 SSE 22 30 12 16 1017.2 1017.2 0.0
07/01:30pm 22.5 20.1 13.9 58 5.0 SE 19 26 10 14 1017.4 1017.4 0.0
07/01:00pm 21.5 19.6 14.3 63 4.2 SSE 17 24 9 13 1017.7 1017.7 0.0
07/12:30pm 21.9 20.2 14.8 64 4.2 SSE 17 24 9 13 1017.8 1017.8 0.0
07/12:00pm 21.4 20.2 15.0 67 3.8 SE 15 19 8 10 1018.1 1018.1 0.0
07/11:30am 20.3 18.3 15.0 71 3.1 SE 19 24 10 13 1018.4 1018.4 0.0
07/11:00am 19.5 17.6 15.2 76 2.5 SE 19 24 10 13 1018.6 1018.6 0.0
07/10:30am 19.3 17.2 14.8 75 2.6 SSE 19 24 10 13 1018.7 1018.7 0.0
07/10:00am 19.0 16.9 15.1 78 2.3 SE 20 26 11 14 1018.7 1018.7 0.0
07/09:44am 19.5 17.4 14.7 74 2.8 SSE 19 26 10 14 1018.7 1018.7 0.0
07/09:30am 19.6 17.9 14.6 73 2.9 S 17 24 9 13 1018.7 1018.7 0.0
07/09:00am 19.2 18.8 15.3 78 2.3 S 11 15 6 8 1018.7 1018.7 0.0
07/08:41am 18.4 18.5 15.5 83 1.7 SSW 9 11 5 6 1018.7 1018.7 0.0
07/08:30am 18.4 19.8 15.5 83 1.7 S 2 9 1 5 1018.6 1018.6 0.0
07/08:10am 17.9 19.6 15.3 85 1.5 CALM 0 0 0 0 1018.5 1018.5 0.0
07/08:00am 17.7 18.7 15.3 86 1.4 WSW 4 7 2 4 1018.5 1018.5 0.0
07/07:30am 16.9 17.8 15.2 90 1.0 NW 4 9 2 5 1018.2 1018.2 0.0
07/07:00am 16.3 16.5 14.7 90 0.9 WSW 7 9 4 5 1018.0 1018.0 0.0
07/06:30am 15.2 15.4 14.1 93 0.6 NW 6 9 3 5 1017.5 1017.5 0.0
07/06:00am 16.0 17.5 14.6 91 0.8 CALM 0 0 0 0 1017.4 1017.4 0.0
07/05:30am 15.6 16.6 14.2 91 0.8 WSW 2 7 1 4 1017.0 1017.0 0.0
07/05:00am 15.1 14.3 13.9 92 0.7 W 11 11 6 6 1016.6 1016.6 0.0
07/04:30am 15.7 16.8 14.5 93 0.7 SW 2 7 1 4 1016.5 1016.5 0.0
07/04:00am 16.3 16.7 14.7 90 0.9 NNW 6 7 3 4 1016.5 1016.5 0.0
07/03:30am 16.5 16.8 14.9 90 0.9 NW 7 9 4 5 1016.7 1016.7 0.0
07/03:00am 16.3 16.5 14.7 90 0.9 WNW 7 9 4 5 1016.9 1016.9 0.0
07/02:30am 15.7 17.3 14.8 94 0.5 CALM 0 0 0 0 1016.9 1016.9 0.0
07/02:00am 15.6 17.0 14.4 93 0.7 CALM 0 0 0 0 1017.1 1017.1 0.0
07/01:30am 16.7 17.2 15.1 90 0.9 SSW 6 7 3 4 1017.3 1017.3 0.0
07/01:00am 17.4 19.1 15.3 87 1.2 CALM 0 0 0 0 1017.4 1017.4 0.0
07/12:30am 17.5 18.1 15.4 87 1.2 S 6 9 3 5 1017.4 1017.4 0.0
07/12:00am 17.7 18.4 15.7 88 1.2 S 6 7 3 4 1017.5 1017.5 0.0
 
Date/Time
EDT
Tmp

°C
App
Tmp
°C
Dew
Point
°C
Rel
Hum
%
Delta-T

°C
Wind Press
QNH
hPa
Press
MSL
hPa
Rain
since
9 am
mm
Dir
 
Spd
km/h
Gust
km/h
Spd
kts
Gust
kts
06/11:30pm 17.8 18.5 15.6 87 1.3 SSE 6 7 3 4 1017.5 1017.5 0.0
06/11:00pm 18.0 18.5 15.6 86 1.4 SSE 7 9 4 5 1017.7 1017.7 0.0
06/10:30pm 18.3 18.9 15.8 85 1.5 S 7 9 4 5 1017.9 1017.9 0.0
06/10:00pm 18.3 16.9 15.6 84 1.6 SSW 17 20 9 11 1018.2 1018.2 0.0
06/09:30pm 18.7 18.0 15.5 81 1.9 SSW 13 15 7 8 1018.0 1018.0 0.0
06/09:00pm 18.9 17.1 15.5 80 2.0 S 19 26 10 14 1017.8 1017.8 0.0
06/08:30pm 20.6 19.3 15.7 73 2.9 SSE 17 24 9 13 1017.8 1017.8 0.0
06/08:00pm 21.6 20.0 13.8 61 4.5 SE 15 19 8 10 1017.8 1017.8 0.0
06/07:30pm 21.8 20.0 13.3 58 4.9 SE 15 20 8 11 1017.6 1017.6 0.0
06/07:00pm 22.1 19.8 13.0 56 5.2 SE 17 22 9 12 1017.5 1017.5 0.0
06/06:30pm 20.9 18.8 15.3 70 3.3 S 20 26 11 14 1017.5 1017.5 0.0
06/06:00pm 20.6 17.9 15.5 72 3.0 S 24 30 13 16 1017.7 1017.7 0.0
06/05:30pm 20.9 17.2 15.1 69 3.4 S 28 35 15 19 1017.7 1017.7 0.0
06/05:00pm 22.3 18.4 15.4 65 4.1 S 30 37 16 20 1017.9 1017.9 0.0
06/04:30pm 21.2 17.2 15.1 68 3.6 S 30 37 16 20 1018.1 1018.1 0.0
06/04:00pm 21.5 17.1 15.1 67 3.8 S 32 39 17 21 1018.2 1018.2 0.0
06/03:30pm 21.4 17.0 15.1 67 3.7 S 32 39 17 21 1018.6 1018.6 0.0
06/03:00pm 21.5 16.5 15.1 67 3.8 S 35 41 19 22 1018.8 1018.8 0.0
06/02:30pm 22.5 18.1 15.1 63 4.4 S 32 39 17 21 1019.0 1019.0 0.0
06/02:00pm 21.7 16.9 15.5 68 3.7 S 35 43 19 23 1019.1 1019.1 0.0
06/01:30pm 22.2 17.4 13.9 59 4.8 SSE 32 39 17 21 1019.3 1019.3 0.0
06/01:00pm 23.1 19.8 14.0 56 5.3 SE 24 30 13 16 1019.4 1019.4 0.0
06/12:30pm 23.2 20.2 12.5 51 6.1 SSE 20 26 11 14 1019.5 1019.5 0.0
06/12:00pm 23.5 20.4 13.3 52 5.9 SSE 22 26 12 14 1019.8 1019.8 0.0
06/11:30am 23.8 21.2 13.9 54 5.8 SE 20 26 11 14 1020.1 1020.1 0.0
06/11:00am 23.4 22.3 13.2 52 5.9 ENE 11 15 6 8 1020.3 1020.3 0.0
06/10:30am 22.3 21.4 13.7 58 5.0 NE 11 15 6 8 1020.6 1020.6 0.0
06/10:00am 21.7 20.6 13.1 58 4.9 NE 11 17 6 9 1020.9 1020.9 0.0
06/09:30am 21.2 19.4 13.3 60 4.5 NE 15 17 8 9 1021.0 1021.0 0.0
06/09:00am 20.3 19.0 13.7 66 3.8 NE 13 17 7 9 1021.2 1021.2 0.0
06/08:30am 19.0 18.4 13.5 70 3.1 N 9 15 5 8 1021.1 1021.1 0.0
06/08:00am 18.0 17.4 13.6 75 2.5 N 9 13 5 7 1020.9 1020.9 0.0
06/07:30am 17.1 16.9 13.5 79 2.0 W 7 9 4 5 1020.7 1020.7 0.0
06/07:00am 16.0 15.7 13.3 84 1.5 N 7 7 4 4 1020.4 1020.4 0.0
06/06:30am 15.6 15.5 13.4 87 1.2 NW 6 9 3 5 1020.2 1020.2 0.0
06/06:00am 16.3 15.3 13.3 82 1.7 N 11 13 6 7 1020.2 1020.2 0.0

Latest Capital City Observations: Canberra | Sydney | Melbourne | Brisbane | Adelaide | Perth | Hobart | Darwin

Other Formats:

Comma delimited format used in spreadsheet applications
http://www.bom.gov.au/fwo/IDT60901/IDT60901.94975.axf

JavaScript Object Notation format (JSON) in row-major order
http://www.bom.gov.au/fwo/IDT60901/IDT60901.94975.json